createdAt,value
2023-02-14T00:02:24.478Z,6.37
2023-02-14T00:04:51.034Z,6.33
2023-02-14T00:07:17.605Z,6.44
2023-02-14T00:09:44.133Z,6.35
2023-02-14T00:12:10.572Z,6.42
2023-02-14T00:14:55.364Z,6.36
2023-02-14T00:17:21.796Z,6.32
2023-02-14T00:19:48.465Z,6.27
2023-02-14T00:22:14.875Z,5.93
2023-02-14T00:24:41.317Z,6.17
2023-02-14T00:27:07.845Z,6.25
2023-02-14T00:29:34.425Z,6.36
2023-02-14T00:32:01.305Z,5.96
2023-02-14T00:34:28.146Z,5.85
2023-02-14T00:36:54.660Z,6.09
2023-02-14T00:39:21.221Z,6.24
2023-02-14T00:41:47.821Z,6.17
2023-02-14T00:44:14.289Z,6.19
2023-02-14T00:46:40.981Z,6.19
2023-02-14T00:49:07.471Z,6.16
2023-02-14T00:51:33.953Z,6.20
2023-02-14T00:54:00.745Z,6.29
2023-02-14T00:56:27.653Z,6.06
2023-02-14T00:58:54.114Z,6.27
2023-02-14T01:01:21.097Z,6.28
2023-02-14T01:03:47.856Z,6.22
2023-02-14T01:06:14.808Z,6.24
2023-02-14T01:08:41.301Z,6.27
2023-02-14T01:11:13.883Z,6.25
2023-02-14T01:13:41.327Z,6.25
2023-02-14T01:16:11.021Z,6.26
2023-02-14T01:18:38.848Z,6.25
2023-02-14T01:21:17.305Z,6.23
2023-02-14T01:23:45.003Z,6.17
2023-02-14T01:26:11.801Z,6.15
2023-02-14T01:28:40.212Z,6.19
2023-02-14T01:31:10.739Z,6.04
2023-02-14T01:33:38.147Z,5.97
2023-02-14T01:36:04.897Z,6.16
2023-02-14T01:38:31.397Z,6.12
2023-02-14T01:40:58.532Z,6.13
2023-02-14T01:43:25.445Z,6.18
2023-02-14T01:45:51.886Z,6.10
2023-02-14T01:48:21.812Z,6.14
2023-02-14T01:50:51.781Z,6.06
2023-02-14T01:53:24.776Z,6.06
2023-02-14T01:55:58.633Z,6.01
2023-02-14T01:58:29.554Z,5.87
2023-02-14T02:00:59.452Z,6.00
2023-02-14T02:03:30.782Z,5.93
2023-02-14T02:06:10.304Z,5.76
2023-02-14T02:08:41.769Z,5.80
2023-02-14T02:11:08.414Z,5.93
2023-02-14T02:13:34.822Z,5.95
2023-02-14T02:16:19.288Z,5.92
2023-02-14T02:19:02.964Z,5.87
2023-02-14T02:21:35.416Z,5.92
2023-02-14T02:24:20.812Z,5.85
2023-02-14T02:27:29.139Z,5.83
2023-02-14T02:30:15.953Z,5.89
2023-02-14T02:32:48.008Z,5.71
2023-02-14T02:35:40.567Z,5.75
2023-02-14T02:38:25.130Z,5.71
2023-02-14T02:41:04.003Z,5.70
2023-02-14T02:43:55.342Z,5.87
2023-02-14T02:46:48.942Z,5.76
2023-02-14T02:49:43.209Z,5.58
2023-02-14T02:52:35.432Z,5.50
2023-02-14T02:55:13.851Z,5.83
2023-02-14T02:57:42.712Z,5.80
2023-02-14T03:00:13.459Z,5.68
2023-02-14T03:03:07.313Z,5.84
2023-02-14T03:05:35.306Z,5.77
2023-02-14T03:08:03.003Z,5.77
2023-02-14T03:10:37.323Z,5.79
2023-02-14T03:13:14.376Z,5.80
2023-02-14T03:15:58.387Z,5.53
2023-02-14T03:19:19.161Z,5.42
2023-02-14T03:22:03.567Z,5.64
2023-02-14T03:24:57.478Z,5.76
2023-02-14T03:27:47.863Z,5.65
2023-02-14T03:30:40.265Z,5.74
2023-02-14T03:33:17.076Z,5.68
2023-02-14T03:36:25.084Z,5.70
2023-02-14T03:39:02.453Z,5.53
2023-02-14T03:41:35.710Z,5.64
2023-02-14T03:44:07.100Z,5.62
2023-02-14T03:46:42.610Z,5.53
2023-02-14T03:49:13.606Z,5.38
2023-02-14T03:51:41.403Z,5.39
2023-02-14T03:54:10.571Z,5.38
2023-02-14T03:56:50.264Z,5.19
2023-02-14T03:59:22.342Z,5.21
2023-02-14T04:01:58.271Z,5.09
2023-02-14T04:04:28.449Z,5.05
2023-02-14T04:06:55.174Z,4.95
2023-02-14T04:09:21.602Z,4.88
2023-02-14T04:11:50.313Z,4.93
2023-02-14T04:14:17.566Z,5.03
2023-02-14T04:17:02.663Z,5.15
2023-02-14T04:19:29.120Z,5.13
2023-02-14T04:21:55.556Z,5.07
2023-02-14T04:24:21.961Z,4.87
2023-02-14T04:26:54.357Z,4.89
2023-02-14T04:29:21.332Z,4.96
2023-02-14T04:31:48.005Z,4.79
2023-02-14T04:34:15.001Z,4.90
2023-02-14T04:36:41.411Z,5.05
2023-02-14T04:39:07.855Z,5.14
2023-02-14T04:41:34.252Z,5.17
2023-02-14T04:44:00.765Z,4.96
2023-02-14T04:46:27.213Z,4.74
2023-02-14T04:48:53.645Z,4.80
2023-02-14T04:51:20.058Z,4.81
2023-02-14T04:53:46.451Z,5.05
2023-02-14T04:56:12.888Z,4.74
2023-02-14T04:58:39.368Z,4.87
2023-02-14T05:01:05.854Z,4.83
2023-02-14T05:03:32.406Z,4.66
2023-02-14T05:05:58.820Z,4.74
2023-02-14T05:08:25.317Z,4.48
2023-02-14T05:10:51.757Z,4.37
2023-02-14T05:13:18.238Z,4.76
2023-02-14T05:15:45.541Z,4.29
2023-02-14T05:18:11.987Z,4.37
2023-02-14T05:20:38.408Z,4.15
2023-02-14T05:23:05.241Z,4.06
2023-02-14T05:25:31.951Z,4.44
2023-02-14T05:27:58.465Z,4.43
2023-02-14T05:30:27.910Z,4.23
2023-02-14T05:32:54.600Z,4.17
2023-02-14T05:35:21.013Z,4.22
2023-02-14T05:37:47.397Z,4.00
2023-02-14T05:40:15.140Z,3.75
2023-02-14T05:42:45.011Z,3.84
2023-02-14T05:45:11.912Z,3.82
2023-02-14T05:47:38.995Z,3.81
2023-02-14T05:50:06.538Z,3.93
2023-02-14T05:52:32.953Z,3.97
2023-02-14T05:54:59.337Z,4.15
2023-02-14T05:57:25.812Z,3.25
2023-02-14T05:59:52.210Z,3.88
2023-02-14T06:02:18.720Z,3.73
2023-02-14T06:04:45.260Z,3.10
2023-02-14T06:07:11.697Z,3.43
2023-02-14T06:09:38.103Z,3.85
2023-02-14T06:12:04.705Z,4.10
2023-02-14T06:14:31.158Z,3.48
2023-02-14T06:16:57.623Z,3.90
2023-02-14T06:19:24.076Z,4.18
2023-02-14T06:21:50.456Z,3.93
2023-02-14T06:24:16.880Z,3.83
2023-02-14T06:26:43.328Z,3.91
2023-02-14T06:29:10.039Z,3.97
2023-02-14T06:31:36.645Z,4.05
2023-02-14T06:34:03.148Z,3.77
2023-02-14T06:36:29.574Z,3.63
2023-02-14T06:38:55.988Z,4.08
2023-02-14T06:41:22.412Z,3.68
2023-02-14T06:43:48.879Z,3.67
2023-02-14T06:46:16.307Z,3.42
2023-02-14T06:48:42.937Z,3.26
2023-02-14T06:51:09.850Z,3.35
2023-02-14T06:53:36.567Z,3.52
2023-02-14T06:56:04.094Z,3.71
2023-02-14T06:58:30.695Z,3.63
2023-02-14T07:00:58.990Z,3.53
2023-02-14T07:03:26.780Z,3.65
2023-02-14T07:05:53.715Z,3.57
2023-02-14T07:08:20.665Z,3.55
2023-02-14T07:10:47.213Z,3.79
2023-02-14T07:13:13.647Z,3.62
2023-02-14T07:15:40.146Z,3.56
2023-02-14T07:18:08.686Z,3.95
2023-02-14T07:20:35.514Z,3.63
2023-02-14T07:23:01.934Z,3.89
2023-02-14T07:25:28.348Z,3.70
2023-02-14T07:27:54.792Z,3.25
2023-02-14T07:30:21.683Z,3.45
2023-02-14T07:32:48.127Z,3.99
2023-02-14T07:35:15.358Z,3.44
2023-02-14T07:37:41.998Z,3.72
2023-02-14T07:40:14.552Z,3.62
2023-02-14T07:42:41.520Z,3.41
2023-02-14T07:45:20.663Z,3.42
2023-02-14T07:47:50.485Z,3.64
2023-02-14T07:50:17.552Z,3.64
2023-02-14T07:52:44.883Z,3.45
2023-02-14T07:55:11.770Z,3.60
2023-02-14T07:57:38.237Z,3.70
2023-02-14T08:00:06.616Z,3.59
2023-02-14T08:02:33.164Z,3.39
2023-02-14T08:04:59.633Z,3.11
2023-02-14T08:07:26.084Z,3.27
2023-02-14T08:09:52.533Z,3.36
2023-02-14T08:12:37.279Z,3.76
2023-02-14T08:15:22.586Z,4.06
2023-02-14T08:17:49.013Z,4.20
2023-02-14T08:20:15.435Z,3.70
2023-02-14T08:22:41.912Z,3.92
2023-02-14T08:25:08.551Z,3.45
2023-02-14T08:27:34.996Z,4.01
2023-02-14T08:30:01.532Z,4.18
2023-02-14T08:32:28.091Z,4.06
2023-02-14T08:34:54.612Z,4.26
2023-02-14T08:37:21.028Z,4.46
2023-02-14T08:39:47.456Z,3.93
2023-02-14T08:42:13.909Z,4.73
2023-02-14T08:44:40.317Z,4.03
2023-02-14T08:47:07.100Z,4.23
2023-02-14T08:49:33.548Z,4.36
2023-02-14T08:51:59.987Z,4.52
2023-02-14T08:54:26.415Z,4.35
2023-02-14T08:56:52.871Z,4.47
2023-02-14T08:59:19.321Z,5.07
2023-02-14T09:01:45.750Z,5.31
2023-02-14T09:04:12.241Z,5.35
2023-02-14T09:06:39.527Z,5.31
2023-02-14T09:09:06.739Z,5.58
2023-02-14T09:11:33.451Z,5.23
2023-02-14T09:13:59.888Z,5.15
2023-02-14T09:16:26.651Z,5.47
2023-02-14T09:18:53.455Z,4.67
2023-02-14T09:21:23.270Z,5.49
2023-02-14T09:23:49.822Z,4.89
2023-02-14T09:26:16.926Z,5.14
2023-02-14T09:28:43.431Z,5.68
2023-02-14T09:31:11.360Z,5.87
2023-02-14T09:33:56.957Z,5.64
2023-02-14T09:36:41.768Z,6.09
2023-02-14T09:39:08.280Z,6.36
2023-02-14T09:42:02.734Z,6.89
2023-02-14T09:44:36.761Z,6.95
2023-02-14T09:47:44.888Z,6.50
2023-02-14T09:50:22.505Z,6.82
2023-02-14T09:52:55.383Z,6.40
2023-02-14T09:55:22.475Z,6.56
2023-02-14T09:58:12.432Z,6.47
2023-02-14T10:00:46.579Z,6.74
2023-02-14T10:03:28.135Z,6.66
2023-02-14T10:05:58.949Z,6.51
2023-02-14T10:08:39.267Z,7.07
2023-02-14T10:11:14.394Z,6.87
2023-02-14T10:13:53.176Z,6.98
2023-02-14T10:16:27.209Z,7.18
2023-02-14T10:19:01.361Z,7.36
2023-02-14T10:21:38.315Z,7.18
2023-02-14T10:24:17.748Z,7.12
2023-02-14T10:26:47.296Z,7.82
2023-02-14T10:29:16.372Z,7.78
2023-02-14T10:32:02.368Z,7.94
2023-02-14T10:34:34.586Z,7.76
2023-02-14T10:37:19.871Z,7.22
2023-02-14T10:40:10.943Z,7.33
2023-02-14T10:42:55.695Z,7.37
2023-02-14T10:45:53.540Z,7.66
2023-02-14T10:48:29.336Z,7.94
2023-02-14T10:51:33.457Z,7.50
2023-02-14T10:54:18.775Z,7.29
2023-02-14T10:56:50.354Z,8.10
2023-02-14T10:59:46.465Z,7.92
2023-02-14T11:02:16.136Z,8.07
2023-02-14T11:04:47.062Z,8.09
2023-02-14T11:07:14.970Z,8.28
2023-02-14T11:09:41.652Z,8.02
2023-02-14T11:12:08.552Z,8.29
2023-02-14T11:14:37.493Z,7.85
2023-02-14T11:17:30.447Z,7.63
2023-02-14T11:20:02.968Z,7.93
2023-02-14T11:22:30.629Z,7.34
2023-02-14T11:25:18.145Z,7.74
2023-02-14T11:27:50.965Z,7.55
2023-02-14T11:30:26.950Z,8.06
2023-02-14T11:32:56.826Z,8.10
2023-02-14T11:35:27.595Z,8.05
2023-02-14T11:37:56.994Z,7.86
2023-02-14T11:40:38.109Z,8.23
2023-02-14T11:43:14.195Z,8.55
2023-02-14T11:45:44.426Z,8.64
2023-02-14T11:48:34.917Z,8.70
2023-02-14T11:51:16.756Z,8.94
2023-02-14T11:53:47.744Z,8.79
2023-02-14T11:56:19.181Z,9.09
2023-02-14T11:58:55.858Z,9.36
2023-02-14T12:01:32.155Z,9.35
2023-02-14T12:04:12.218Z,9.60
2023-02-14T12:06:38.703Z,9.66
2023-02-14T12:09:23.536Z,10.06
2023-02-14T12:11:59.854Z,9.80
2023-02-14T12:14:31.641Z,9.80
2023-02-14T12:17:24.086Z,10.00
2023-02-14T12:20:11.933Z,10.23
2023-02-14T12:23:05.139Z,10.70
2023-02-14T12:25:44.322Z,10.73
2023-02-14T12:28:15.355Z,10.53
2023-02-14T12:30:41.911Z,10.40
2023-02-14T12:33:22.946Z,10.56
2023-02-14T12:36:26.950Z,10.81
2023-02-14T12:39:26.041Z,10.20
2023-02-14T12:42:11.912Z,10.35
2023-02-14T12:44:56.289Z,10.19
2023-02-14T12:47:32.186Z,10.79
2023-02-14T12:50:27.913Z,10.71
2023-02-14T12:53:17.056Z,11.01
2023-02-14T12:55:54.734Z,10.85
2023-02-14T12:58:28.502Z,11.22
2023-02-14T13:01:28.901Z,10.84
2023-02-14T13:04:20.958Z,10.76
2023-02-14T13:07:22.591Z,10.73
2023-02-14T13:09:59.553Z,10.14
2023-02-14T13:12:36.115Z,10.19
2023-02-14T13:15:06.844Z,10.45
2023-02-14T13:17:41.991Z,10.01
2023-02-14T13:20:24.840Z,10.60
2023-02-14T13:22:54.602Z,10.24
2023-02-14T13:25:33.485Z,10.19
2023-02-14T13:28:04.080Z,10.37
2023-02-14T13:30:33.600Z,10.27
2023-02-14T13:33:08.975Z,9.96
2023-02-14T13:35:36.220Z,9.77
2023-02-14T13:38:06.931Z,10.05
2023-02-14T13:40:35.606Z,9.75
2023-02-14T13:43:02.905Z,9.56
2023-02-14T13:45:29.250Z,9.85
2023-02-14T13:48:17.080Z,9.47
2023-02-14T13:50:57.746Z,9.85
2023-02-14T13:53:30.595Z,9.44
2023-02-14T13:55:57.578Z,9.22
2023-02-14T13:58:25.680Z,9.69
2023-02-14T14:00:53.152Z,9.37
2023-02-14T14:03:28.987Z,8.75
2023-02-14T14:06:01.128Z,8.72
2023-02-14T14:08:30.569Z,8.97
2023-02-14T14:11:10.130Z,8.86
2023-02-14T14:13:42.735Z,9.07
2023-02-14T14:16:24.553Z,8.88
2023-02-14T14:18:53.236Z,8.54
2023-02-14T14:21:28.872Z,9.46
2023-02-14T14:24:28.835Z,9.02
2023-02-14T14:27:02.981Z,8.97
2023-02-14T14:29:39.396Z,9.12
2023-02-14T14:32:18.099Z,8.82
2023-02-14T14:34:55.039Z,8.95
2023-02-14T14:37:28.422Z,8.44
2023-02-14T14:40:00.169Z,9.15
2023-02-14T14:42:32.203Z,9.38
2023-02-14T14:45:06.910Z,9.80
2023-02-14T14:47:45.311Z,9.10
2023-02-14T14:50:24.572Z,9.26
2023-02-14T14:53:38.292Z,8.69
2023-02-14T14:56:04.788Z,9.41
2023-02-14T14:58:40.318Z,9.51
2023-02-14T15:01:13.176Z,9.43
2023-02-14T15:03:40.009Z,8.81
2023-02-14T15:06:17.366Z,8.92
2023-02-14T15:08:44.268Z,8.99
2023-02-14T15:11:41.754Z,8.60
2023-02-14T15:14:17.808Z,8.72
2023-02-14T15:16:51.344Z,8.44
2023-02-14T15:19:40.851Z,8.86
2023-02-14T15:22:19.753Z,8.82
2023-02-14T15:24:46.925Z,8.45
2023-02-14T15:27:19.246Z,9.12
2023-02-14T15:30:02.271Z,8.68
2023-02-14T15:32:32.105Z,8.11
2023-02-14T15:35:01.726Z,8.10
2023-02-14T15:37:28.644Z,8.26
2023-02-14T15:39:56.573Z,8.33
2023-02-14T15:42:32.717Z,8.68
2023-02-14T15:45:17.786Z,8.68
2023-02-14T15:47:47.518Z,8.16
2023-02-14T15:50:25.144Z,8.38
2023-02-14T15:53:02.573Z,8.28
2023-02-14T15:55:30.848Z,8.37
2023-02-14T15:58:04.836Z,8.08
2023-02-14T16:00:32.335Z,8.50
2023-02-14T16:03:04.989Z,8.40
2023-02-14T16:05:31.796Z,8.69
2023-02-14T16:08:03.675Z,8.46
2023-02-14T16:10:30.117Z,8.60
2023-02-14T16:12:57.583Z,8.47
2023-02-14T16:15:26.789Z,8.49
2023-02-14T16:17:53.472Z,8.42
2023-02-14T16:20:36.122Z,8.33
2023-02-14T16:23:21.316Z,7.77
2023-02-14T16:25:48.291Z,8.03
2023-02-14T16:28:15.153Z,8.06
2023-02-14T16:30:42.786Z,8.08
2023-02-14T16:33:16.432Z,7.95
2023-02-14T16:35:42.927Z,8.48
2023-02-14T16:38:15.801Z,8.65
2023-02-14T16:40:49.086Z,8.53
2023-02-14T16:43:17.059Z,8.50
2023-02-14T16:45:44.326Z,8.74
2023-02-14T16:48:10.819Z,8.82
2023-02-14T16:50:39.551Z,8.95
2023-02-14T16:53:20.512Z,8.85
2023-02-14T16:55:47.138Z,8.54
2023-02-14T16:58:14.602Z,8.73
2023-02-14T17:00:42.008Z,8.66
2023-02-14T17:03:11.408Z,8.55
2023-02-14T17:05:39.912Z,8.69
2023-02-14T17:08:11.067Z,8.68
2023-02-14T17:10:38.903Z,8.85
2023-02-14T17:13:06.963Z,8.75
2023-02-14T17:15:34.238Z,9.08
2023-02-14T17:18:04.936Z,9.22
2023-02-14T17:20:31.406Z,9.56
2023-02-14T17:22:58.274Z,9.31
2023-02-14T17:25:25.390Z,9.10
2023-02-14T17:27:51.815Z,9.19
2023-02-14T17:30:18.715Z,9.38
2023-02-14T17:32:45.183Z,9.20
2023-02-14T17:35:11.950Z,9.31
2023-02-14T17:37:38.380Z,9.37
2023-02-14T17:40:05.883Z,9.48
2023-02-14T17:42:33.525Z,9.66
2023-02-14T17:45:00.025Z,9.61
2023-02-14T17:47:26.643Z,9.67
2023-02-14T17:49:53.093Z,9.72
2023-02-14T17:52:19.619Z,9.63
2023-02-14T17:54:46.031Z,9.60
2023-02-14T17:57:12.696Z,9.38
2023-02-14T17:59:39.275Z,9.39
2023-02-14T18:02:06.417Z,9.08
2023-02-14T18:04:34.887Z,8.85
2023-02-14T18:07:01.286Z,8.14
2023-02-14T18:09:28.288Z,8.74
2023-02-14T18:11:55.472Z,8.91
2023-02-14T18:14:22.459Z,8.91
2023-02-14T18:16:48.883Z,8.97
2023-02-14T18:19:17.901Z,8.92
2023-02-14T18:21:45.452Z,8.94
2023-02-14T18:24:13.101Z,8.71
2023-02-14T18:26:41.691Z,8.81
2023-02-14T18:29:08.293Z,8.87
2023-02-14T18:31:37.849Z,8.75
2023-02-14T18:34:05.070Z,8.75
2023-02-14T18:36:32.295Z,8.77
2023-02-14T18:38:58.971Z,8.66
2023-02-14T18:41:26.589Z,8.68
2023-02-14T18:43:53.086Z,8.60
2023-02-14T18:46:25.493Z,8.49
2023-02-14T18:48:52.508Z,8.57
2023-02-14T18:51:18.884Z,8.55
2023-02-14T18:53:46.069Z,8.52
2023-02-14T18:56:15.625Z,8.45
2023-02-14T18:58:44.474Z,8.56
2023-02-14T19:01:13.914Z,8.49
2023-02-14T19:03:41.180Z,8.44
2023-02-14T19:06:08.868Z,8.45
2023-02-14T19:08:37.010Z,8.47
2023-02-14T19:11:03.792Z,8.45
2023-02-14T19:13:32.146Z,8.28
2023-02-14T19:15:59.360Z,8.30
2023-02-14T19:18:26.543Z,8.05
2023-02-14T19:20:53.143Z,8.17
2023-02-14T19:23:19.662Z,8.03
2023-02-14T19:25:46.048Z,8.05
2023-02-14T19:28:12.529Z,7.96
2023-02-14T19:30:39.329Z,8.01
2023-02-14T19:33:06.822Z,7.99
2023-02-14T19:35:33.264Z,8.04
2023-02-14T19:38:03.415Z,7.98
2023-02-14T19:40:30.734Z,7.80
2023-02-14T19:42:57.202Z,7.83
2023-02-14T19:45:23.615Z,7.75
2023-02-14T19:47:50.040Z,7.73
2023-02-14T19:50:17.572Z,7.77
2023-02-14T19:52:44.495Z,7.83
2023-02-14T19:55:20.695Z,7.83
2023-02-14T19:57:47.965Z,7.74
2023-02-14T20:00:16.188Z,7.68
2023-02-14T20:02:47.917Z,7.65
2023-02-14T20:05:17.587Z,7.60
2023-02-14T20:07:44.157Z,7.58
2023-02-14T20:10:12.156Z,7.51
2023-02-14T20:12:38.684Z,7.42
2023-02-14T20:15:06.186Z,7.46
2023-02-14T20:17:33.321Z,7.45
2023-02-14T20:19:59.899Z,7.26
2023-02-14T20:22:26.814Z,7.40
2023-02-14T20:24:53.390Z,7.36
2023-02-14T20:27:20.485Z,7.30
2023-02-14T20:29:46.967Z,7.31
2023-02-14T20:32:15.768Z,7.07
2023-02-14T20:34:43.006Z,7.12
2023-02-14T20:37:11.043Z,7.16
2023-02-14T20:39:38.104Z,7.10
2023-02-14T20:42:05.493Z,7.04
2023-02-14T20:44:32.028Z,7.07
2023-02-14T20:46:58.609Z,6.91
2023-02-14T20:49:27.168Z,6.98
2023-02-14T20:51:53.890Z,6.84
2023-02-14T20:54:23.252Z,6.41
2023-02-14T20:56:51.591Z,6.18
2023-02-14T20:59:28.690Z,6.14
2023-02-14T21:01:57.273Z,6.52
2023-02-14T21:04:24.895Z,6.71
2023-02-14T21:06:51.364Z,6.70
2023-02-14T21:09:18.647Z,6.68
2023-02-14T21:11:45.187Z,6.67
2023-02-14T21:14:11.984Z,6.64
2023-02-14T21:16:38.507Z,6.66
2023-02-14T21:19:05.762Z,6.65
2023-02-14T21:21:36.809Z,6.48
2023-02-14T21:24:12.024Z,6.62
2023-02-14T21:26:39.029Z,6.62
2023-02-14T21:29:05.922Z,6.69
2023-02-14T21:31:32.517Z,6.73
2023-02-14T21:34:00.981Z,6.62
2023-02-14T21:36:29.864Z,6.66
2023-02-14T21:38:58.331Z,6.64
2023-02-14T21:41:27.761Z,6.73
2023-02-14T21:43:56.342Z,6.63
2023-02-14T21:46:30.576Z,6.61
2023-02-14T21:49:17.358Z,6.62
2023-02-14T21:51:44.033Z,6.58
2023-02-14T21:54:11.046Z,6.55
2023-02-14T21:56:39.406Z,6.51
2023-02-14T21:59:05.836Z,6.51
2023-02-14T22:01:34.997Z,6.58
2023-02-14T22:04:07.668Z,6.65
2023-02-14T22:06:36.496Z,6.51
2023-02-14T22:09:04.046Z,6.51
2023-02-14T22:11:30.729Z,6.53
2023-02-14T22:13:57.217Z,6.58
2023-02-14T22:16:24.934Z,6.55
2023-02-14T22:18:52.144Z,6.68
2023-02-14T22:21:24.313Z,6.67
2023-02-14T22:23:51.250Z,6.67
2023-02-14T22:26:17.655Z,6.67
2023-02-14T22:28:46.312Z,6.62
2023-02-14T22:31:14.307Z,6.59
2023-02-14T22:33:40.899Z,6.35
2023-02-14T22:36:08.456Z,6.51
2023-02-14T22:38:35.779Z,6.37
2023-02-14T22:41:12.159Z,6.33
2023-02-14T22:43:39.788Z,6.36
2023-02-14T22:46:09.306Z,6.39
2023-02-14T22:48:37.522Z,6.38
2023-02-14T22:51:09.359Z,6.29
2023-02-14T22:53:36.278Z,6.41
2023-02-14T22:56:17.118Z,6.39
2023-02-14T22:58:44.509Z,6.38
2023-02-14T23:01:19.364Z,6.32
2023-02-14T23:03:47.810Z,6.29
2023-02-14T23:06:15.173Z,6.25
2023-02-14T23:08:43.820Z,5.94
2023-02-14T23:11:13.536Z,5.55
2023-02-14T23:13:58.935Z,5.55
2023-02-14T23:16:44.240Z,5.57
2023-02-14T23:19:34.981Z,5.94
2023-02-14T23:22:11.014Z,5.61
2023-02-14T23:24:37.597Z,5.80
2023-02-14T23:27:04.659Z,5.80
2023-02-14T23:29:31.092Z,5.83
2023-02-14T23:31:57.792Z,5.61
2023-02-14T23:34:26.519Z,5.59
2023-02-14T23:36:53.223Z,5.68
2023-02-14T23:39:19.682Z,5.64
2023-02-14T23:41:49.121Z,5.59
2023-02-14T23:44:19.787Z,5.76
2023-02-14T23:46:48.598Z,5.64
2023-02-14T23:49:15.924Z,5.61
2023-02-14T23:51:43.539Z,5.67
2023-02-14T23:54:10.381Z,5.65
2023-02-14T23:56:37.457Z,5.83
2023-02-14T23:59:05.343Z,5.91
